sensor_id;sensor_type;location;lat;lon;timestamp;temperature;humidity
7016;DHT22;3548;48.402;9.990;2024-01-25T00:00:33;8.60;99.90
7016;DHT22;3548;48.402;9.990;2024-01-25T00:02:59;8.50;99.90
7016;DHT22;3548;48.402;9.990;2024-01-25T00:05:24;8.50;99.90
7016;DHT22;3548;48.402;9.990;2024-01-25T00:07:50;8.50;99.90
7016;DHT22;3548;48.402;9.990;2024-01-25T00:10:18;8.50;99.90
7016;DHT22;3548;48.402;9.990;2024-01-25T00:12:44;8.50;99.90
7016;DHT22;3548;48.402;9.990;2024-01-25T00:15:10;8.60;99.90
7016;DHT22;3548;48.402;9.990;2024-01-25T00:17:36;8.60;99.90
7016;DHT22;3548;48.402;9.990;2024-01-25T00:20:03;8.60;99.90
7016;DHT22;3548;48.402;9.990;2024-01-25T00:22:28;8.60;99.90
7016;DHT22;3548;48.402;9.990;2024-01-25T00:24:54;8.70;99.90
7016;DHT22;3548;48.402;9.990;2024-01-25T00:27:19;8.70;99.90
7016;DHT22;3548;48.402;9.990;2024-01-25T00:29:45;8.70;99.90
7016;DHT22;3548;48.402;9.990;2024-01-25T00:32:10;8.70;99.90
7016;DHT22;3548;48.402;9.990;2024-01-25T00:34:36;8.80;99.90
7016;DHT22;3548;48.402;9.990;2024-01-25T00:37:02;8.80;99.90
7016;DHT22;3548;48.402;9.990;2024-01-25T00:39:28;8.80;99.90
7016;DHT22;3548;48.402;9.990;2024-01-25T00:41:58;8.80;99.90
7016;DHT22;3548;48.402;9.990;2024-01-25T00:44:28;8.90;99.90
7016;DHT22;3548;48.402;9.990;2024-01-25T00:46:54;8.90;99.90
7016;DHT22;3548;48.402;9.990;2024-01-25T00:49:20;8.90;99.90
7016;DHT22;3548;48.402;9.990;2024-01-25T00:51:47;9.00;99.90
7016;DHT22;3548;48.402;9.990;2024-01-25T00:54:14;9.00;99.90
7016;DHT22;3548;48.402;9.990;2024-01-25T00:56:40;9.00;99.90
7016;DHT22;3548;48.402;9.990;2024-01-25T00:59:06;9.00;99.90
7016;DHT22;3548;48.402;9.990;2024-01-25T01:01:32;9.00;99.90
7016;DHT22;3548;48.402;9.990;2024-01-25T01:03:58;9.00;99.90
7016;DHT22;3548;48.402;9.990;2024-01-25T01:06:24;9.00;99.90
7016;DHT22;3548;48.402;9.990;2024-01-25T01:08:50;9.00;99.90
7016;DHT22;3548;48.402;9.990;2024-01-25T01:11:16;9.00;99.90
7016;DHT22;3548;48.402;9.990;2024-01-25T01:13:41;9.10;99.90
7016;DHT22;3548;48.402;9.990;2024-01-25T01:16:07;9.10;99.90
7016;DHT22;3548;48.402;9.990;2024-01-25T01:18:32;9.10;99.90
7016;DHT22;3548;48.402;9.990;2024-01-25T01:20:58;9.10;99.90
7016;DHT22;3548;48.402;9.990;2024-01-25T01:23:23;9.10;99.90
7016;DHT22;3548;48.402;9.990;2024-01-25T01:25:49;9.10;99.90
7016;DHT22;3548;48.402;9.990;2024-01-25T01:28:14;9.10;99.90
7016;DHT22;3548;48.402;9.990;2024-01-25T01:30:40;9.10;99.90
7016;DHT22;3548;48.402;9.990;2024-01-25T01:33:08;9.00;99.90
7016;DHT22;3548;48.402;9.990;2024-01-25T01:35:34;9.00;99.90
7016;DHT22;3548;48.402;9.990;2024-01-25T01:37:59;9.00;99.90
7016;DHT22;3548;48.402;9.990;2024-01-25T01:40:25;8.90;99.90
7016;DHT22;3548;48.402;9.990;2024-01-25T01:42:50;8.90;99.90
7016;DHT22;3548;48.402;9.990;2024-01-25T01:45:16;8.90;99.90
7016;DHT22;3548;48.402;9.990;2024-01-25T01:47:42;8.90;99.90
7016;DHT22;3548;48.402;9.990;2024-01-25T01:50:08;8.90;99.90
7016;DHT22;3548;48.402;9.990;2024-01-25T01:52:34;8.90;99.90
7016;DHT22;3548;48.402;9.990;2024-01-25T01:55:01;8.90;99.90
7016;DHT22;3548;48.402;9.990;2024-01-25T01:57:27;8.90;99.90
7016;DHT22;3548;48.402;9.990;2024-01-25T01:59:52;8.90;99.90
7016;DHT22;3548;48.402;9.990;2024-01-25T02:02:18;8.90;99.90
7016;DHT22;3548;48.402;9.990;2024-01-25T02:04:44;8.90;99.90
7016;DHT22;3548;48.402;9.990;2024-01-25T02:07:11;8.90;99.90
7016;DHT22;3548;48.402;9.990;2024-01-25T02:09:37;8.90;99.90
7016;DHT22;3548;48.402;9.990;2024-01-25T02:12:03;8.90;99.90
7016;DHT22;3548;48.402;9.990;2024-01-25T02:14:30;8.90;99.90
7016;DHT22;3548;48.402;9.990;2024-01-25T02:16:56;8.90;99.90
7016;DHT22;3548;48.402;9.990;2024-01-25T02:19:21;8.80;99.90
7016;DHT22;3548;48.402;9.990;2024-01-25T02:21:47;8.80;99.90
7016;DHT22;3548;48.402;9.990;2024-01-25T02:24:13;8.80;99.90
7016;DHT22;3548;48.402;9.990;2024-01-25T02:26:39;8.80;99.90
7016;DHT22;3548;48.402;9.990;2024-01-25T02:29:05;8.80;99.90
7016;DHT22;3548;48.402;9.990;2024-01-25T02:31:32;8.80;99.90
7016;DHT22;3548;48.402;9.990;2024-01-25T02:33:58;8.80;99.90
7016;DHT22;3548;48.402;9.990;2024-01-25T02:36:23;8.80;99.90
7016;DHT22;3548;48.402;9.990;2024-01-25T02:38:50;8.80;99.90
7016;DHT22;3548;48.402;9.990;2024-01-25T02:41:15;8.70;99.90
7016;DHT22;3548;48.402;9.990;2024-01-25T02:43:41;8.70;99.90
7016;DHT22;3548;48.402;9.990;2024-01-25T02:46:07;8.70;99.90
7016;DHT22;3548;48.402;9.990;2024-01-25T02:48:34;8.70;99.90
7016;DHT22;3548;48.402;9.990;2024-01-25T02:50:59;8.70;99.90
7016;DHT22;3548;48.402;9.990;2024-01-25T02:53:25;8.60;99.90
7016;DHT22;3548;48.402;9.990;2024-01-25T02:55:50;8.60;99.90
7016;DHT22;3548;48.402;9.990;2024-01-25T02:58:16;8.60;99.90
7016;DHT22;3548;48.402;9.990;2024-01-25T03:00:41;8.60;99.90
7016;DHT22;3548;48.402;9.990;2024-01-25T03:03:07;8.50;99.90
7016;DHT22;3548;48.402;9.990;2024-01-25T03:05:33;8.50;99.90
7016;DHT22;3548;48.402;9.990;2024-01-25T03:08:00;8.40;99.90
7016;DHT22;3548;48.402;9.990;2024-01-25T03:10:25;8.40;99.90
7016;DHT22;3548;48.402;9.990;2024-01-25T03:12:51;8.30;99.90
7016;DHT22;3548;48.402;9.990;2024-01-25T03:15:16;8.30;99.90
7016;DHT22;3548;48.402;9.990;2024-01-25T03:17:42;8.20;99.90
7016;DHT22;3548;48.402;9.990;2024-01-25T03:20:09;8.20;99.90
7016;DHT22;3548;48.402;9.990;2024-01-25T03:22:35;8.10;99.90
7016;DHT22;3548;48.402;9.990;2024-01-25T03:25:00;8.10;99.90
7016;DHT22;3548;48.402;9.990;2024-01-25T03:27:26;8.10;99.90
7016;DHT22;3548;48.402;9.990;2024-01-25T03:29:51;8.10;99.90
7016;DHT22;3548;48.402;9.990;2024-01-25T03:32:17;8.00;99.90
7016;DHT22;3548;48.402;9.990;2024-01-25T03:34:42;8.00;99.90
7016;DHT22;3548;48.402;9.990;2024-01-25T03:37:08;8.00;99.90
7016;DHT22;3548;48.402;9.990;2024-01-25T03:39:33;8.00;99.90
7016;DHT22;3548;48.402;9.990;2024-01-25T03:41:59;7.90;99.90
7016;DHT22;3548;48.402;9.990;2024-01-25T03:44:24;7.90;99.90
7016;DHT22;3548;48.402;9.990;2024-01-25T03:46:50;7.90;99.90
7016;DHT22;3548;48.402;9.990;2024-01-25T03:49:15;7.90;99.90
7016;DHT22;3548;48.402;9.990;2024-01-25T03:51:41;7.90;99.90
7016;DHT22;3548;48.402;9.990;2024-01-25T03:54:08;7.90;99.90
7016;DHT22;3548;48.402;9.990;2024-01-25T03:56:33;7.90;99.90
7016;DHT22;3548;48.402;9.990;2024-01-25T03:58:59;7.80;99.90
7016;DHT22;3548;48.402;9.990;2024-01-25T04:01:24;7.80;99.90
7016;DHT22;3548;48.402;9.990;2024-01-25T04:03:50;7.80;99.90
7016;DHT22;3548;48.402;9.990;2024-01-25T04:06:15;7.80;99.90
7016;DHT22;3548;48.402;9.990;2024-01-25T04:08:41;7.80;99.90
7016;DHT22;3548;48.402;9.990;2024-01-25T04:11:07;7.80;99.90
7016;DHT22;3548;48.402;9.990;2024-01-25T04:13:34;7.80;99.90
7016;DHT22;3548;48.402;9.990;2024-01-25T04:16:00;7.80;99.90
7016;DHT22;3548;48.402;9.990;2024-01-25T04:18:25;7.80;99.90
7016;DHT22;3548;48.402;9.990;2024-01-25T04:20:51;7.80;99.90
7016;DHT22;3548;48.402;9.990;2024-01-25T04:23:17;7.80;99.90
7016;DHT22;3548;48.402;9.990;2024-01-25T04:25:42;7.80;99.90
7016;DHT22;3548;48.402;9.990;2024-01-25T04:28:08;7.80;99.90
7016;DHT22;3548;48.402;9.990;2024-01-25T04:30:34;7.80;99.90
7016;DHT22;3548;48.402;9.990;2024-01-25T04:32:59;7.80;99.90
7016;DHT22;3548;48.402;9.990;2024-01-25T04:35:25;7.80;99.90
7016;DHT22;3548;48.402;9.990;2024-01-25T04:37:50;7.80;99.90
7016;DHT22;3548;48.402;9.990;2024-01-25T04:40:16;7.80;99.90
7016;DHT22;3548;48.402;9.990;2024-01-25T04:42:41;7.80;99.90
7016;DHT22;3548;48.402;9.990;2024-01-25T04:45:07;7.80;99.90
7016;DHT22;3548;48.402;9.990;2024-01-25T04:47:33;7.80;99.90
7016;DHT22;3548;48.402;9.990;2024-01-25T04:49:58;7.80;99.90
7016;DHT22;3548;48.402;9.990;2024-01-25T04:52:24;7.90;99.90
7016;DHT22;3548;48.402;9.990;2024-01-25T04:54:50;7.90;99.90
7016;DHT22;3548;48.402;9.990;2024-01-25T04:57:15;7.80;99.90
7016;DHT22;3548;48.402;9.990;2024-01-25T04:59:41;7.90;99.90
7016;DHT22;3548;48.402;9.990;2024-01-25T05:02:06;7.80;99.90
7016;DHT22;3548;48.402;9.990;2024-01-25T05:04:32;7.80;99.90
7016;DHT22;3548;48.402;9.990;2024-01-25T05:06:58;7.70;99.90
7016;DHT22;3548;48.402;9.990;2024-01-25T05:09:23;7.80;99.90
7016;DHT22;3548;48.402;9.990;2024-01-25T05:11:49;7.70;99.90
7016;DHT22;3548;48.402;9.990;2024-01-25T05:14:14;7.70;99.90
7016;DHT22;3548;48.402;9.990;2024-01-25T05:16:40;7.80;99.90
7016;DHT22;3548;48.402;9.990;2024-01-25T05:19:05;7.80;99.90
7016;DHT22;3548;48.402;9.990;2024-01-25T05:21:31;7.80;99.90
7016;DHT22;3548;48.402;9.990;2024-01-25T05:23:57;7.80;99.90
7016;DHT22;3548;48.402;9.990;2024-01-25T05:26:22;7.80;99.90
7016;DHT22;3548;48.402;9.990;2024-01-25T05:28:48;7.80;99.90
7016;DHT22;3548;48.402;9.990;2024-01-25T05:31:13;7.80;99.90
7016;DHT22;3548;48.402;9.990;2024-01-25T05:33:39;7.80;99.90
7016;DHT22;3548;48.402;9.990;2024-01-25T05:36:05;7.80;99.90
7016;DHT22;3548;48.402;9.990;2024-01-25T05:38:33;7.80;99.90
7016;DHT22;3548;48.402;9.990;2024-01-25T05:40:59;7.90;99.90
7016;DHT22;3548;48.402;9.990;2024-01-25T05:43:25;7.90;99.90
7016;DHT22;3548;48.402;9.990;2024-01-25T05:45:50;7.90;99.90
7016;DHT22;3548;48.402;9.990;2024-01-25T05:48:16;7.90;99.90
7016;DHT22;3548;48.402;9.990;2024-01-25T05:50:41;7.90;99.90
7016;DHT22;3548;48.402;9.990;2024-01-25T05:53:07;7.90;99.90
7016;DHT22;3548;48.402;9.990;2024-01-25T05:55:32;7.90;99.90
7016;DHT22;3548;48.402;9.990;2024-01-25T05:57:58;8.00;99.90
7016;DHT22;3548;48.402;9.990;2024-01-25T06:00:24;8.00;99.90
7016;DHT22;3548;48.402;9.990;2024-01-25T06:02:49;8.00;99.90
7016;DHT22;3548;48.402;9.990;2024-01-25T06:05:15;8.00;99.90
7016;DHT22;3548;48.402;9.990;2024-01-25T06:07:40;8.10;99.90
7016;DHT22;3548;48.402;9.990;2024-01-25T06:10:07;8.10;99.90
7016;DHT22;3548;48.402;9.990;2024-01-25T06:12:33;8.10;99.90
7016;DHT22;3548;48.402;9.990;2024-01-25T06:14:58;8.10;99.90
7016;DHT22;3548;48.402;9.990;2024-01-25T06:17:24;8.10;99.90
7016;DHT22;3548;48.402;9.990;2024-01-25T06:19:49;8.00;99.90
7016;DHT22;3548;48.402;9.990;2024-01-25T06:22:15;8.00;99.90
7016;DHT22;3548;48.402;9.990;2024-01-25T06:24:42;8.00;99.90
7016;DHT22;3548;48.402;9.990;2024-01-25T06:27:11;7.90;99.90
7016;DHT22;3548;48.402;9.990;2024-01-25T06:29:37;7.90;99.90
7016;DHT22;3548;48.402;9.990;2024-01-25T06:32:02;7.90;99.90
7016;DHT22;3548;48.402;9.990;2024-01-25T06:34:28;7.90;99.90
7016;DHT22;3548;48.402;9.990;2024-01-25T06:36:53;7.80;99.90
7016;DHT22;3548;48.402;9.990;2024-01-25T06:39:19;7.80;99.90
7016;DHT22;3548;48.402;9.990;2024-01-25T06:41:45;7.80;99.90
7016;DHT22;3548;48.402;9.990;2024-01-25T06:44:10;7.80;99.90
7016;DHT22;3548;48.402;9.990;2024-01-25T06:46:36;7.80;99.90
7016;DHT22;3548;48.402;9.990;2024-01-25T06:49:01;7.80;99.90
7016;DHT22;3548;48.402;9.990;2024-01-25T06:51:28;7.70;99.90
7016;DHT22;3548;48.402;9.990;2024-01-25T06:53:53;7.70;99.90
7016;DHT22;3548;48.402;9.990;2024-01-25T06:56:19;7.60;99.90
7016;DHT22;3548;48.402;9.990;2024-01-25T06:58:44;7.50;99.90
7016;DHT22;3548;48.402;9.990;2024-01-25T07:01:10;7.50;99.90
7016;DHT22;3548;48.402;9.990;2024-01-25T07:03:36;7.50;99.90
7016;DHT22;3548;48.402;9.990;2024-01-25T07:06:01;7.40;99.90
7016;DHT22;3548;48.402;9.990;2024-01-25T07:08:27;7.40;99.90
7016;DHT22;3548;48.402;9.990;2024-01-25T07:10:53;7.30;99.90
7016;DHT22;3548;48.402;9.990;2024-01-25T07:13:18;7.30;99.90
7016;DHT22;3548;48.402;9.990;2024-01-25T07:15:44;7.20;99.90
7016;DHT22;3548;48.402;9.990;2024-01-25T07:18:10;7.20;99.90
7016;DHT22;3548;48.402;9.990;2024-01-25T07:20:36;7.20;99.90
7016;DHT22;3548;48.402;9.990;2024-01-25T07:23:01;7.30;99.90
7016;DHT22;3548;48.402;9.990;2024-01-25T07:25:27;7.20;99.90
7016;DHT22;3548;48.402;9.990;2024-01-25T07:27:52;7.20;99.90
7016;DHT22;3548;48.402;9.990;2024-01-25T07:30:18;7.20;99.90
7016;DHT22;3548;48.402;9.990;2024-01-25T07:32:44;7.20;99.90
7016;DHT22;3548;48.402;9.990;2024-01-25T07:35:11;7.20;99.90
7016;DHT22;3548;48.402;9.990;2024-01-25T07:37:38;7.20;99.90
7016;DHT22;3548;48.402;9.990;2024-01-25T07:40:04;7.20;99.90
7016;DHT22;3548;48.402;9.990;2024-01-25T07:42:29;7.10;99.90
7016;DHT22;3548;48.402;9.990;2024-01-25T07:44:55;7.10;99.90
7016;DHT22;3548;48.402;9.990;2024-01-25T07:47:20;7.10;99.90
7016;DHT22;3548;48.402;9.990;2024-01-25T07:49:46;7.10;99.90
7016;DHT22;3548;48.402;9.990;2024-01-25T07:52:11;7.10;99.90
7016;DHT22;3548;48.402;9.990;2024-01-25T07:54:37;7.10;99.90
7016;DHT22;3548;48.402;9.990;2024-01-25T07:57:03;7.10;99.90
7016;DHT22;3548;48.402;9.990;2024-01-25T07:59:28;7.20;99.90
7016;DHT22;3548;48.402;9.990;2024-01-25T08:01:54;7.20;99.90
7016;DHT22;3548;48.402;9.990;2024-01-25T08:04:19;7.30;99.90
7016;DHT22;3548;48.402;9.990;2024-01-25T08:06:45;7.30;99.90
7016;DHT22;3548;48.402;9.990;2024-01-25T08:09:10;7.40;99.90
7016;DHT22;3548;48.402;9.990;2024-01-25T08:11:36;7.50;99.90
7016;DHT22;3548;48.402;9.990;2024-01-25T08:14:01;7.50;99.90
7016;DHT22;3548;48.402;9.990;2024-01-25T08:16:29;7.60;99.90
7016;DHT22;3548;48.402;9.990;2024-01-25T08:18:55;7.70;99.90
7016;DHT22;3548;48.402;9.990;2024-01-25T08:21:20;7.70;99.90
7016;DHT22;3548;48.402;9.990;2024-01-25T08:23:46;7.70;99.90
7016;DHT22;3548;48.402;9.990;2024-01-25T08:26:12;7.80;99.90
7016;DHT22;3548;48.402;9.990;2024-01-25T08:28:41;7.90;99.90
7016;DHT22;3548;48.402;9.990;2024-01-25T08:31:09;8.00;99.90
7016;DHT22;3548;48.402;9.990;2024-01-25T08:33:34;8.00;99.90
7016;DHT22;3548;48.402;9.990;2024-01-25T08:36:00;8.10;99.90
7016;DHT22;3548;48.402;9.990;2024-01-25T08:38:25;8.10;99.90
7016;DHT22;3548;48.402;9.990;2024-01-25T08:40:51;8.20;99.90
7016;DHT22;3548;48.402;9.990;2024-01-25T08:43:17;8.30;99.90
7016;DHT22;3548;48.402;9.990;2024-01-25T08:45:43;8.40;99.90
7016;DHT22;3548;48.402;9.990;2024-01-25T08:48:08;8.40;99.90
7016;DHT22;3548;48.402;9.990;2024-01-25T08:50:35;8.50;99.90
7016;DHT22;3548;48.402;9.990;2024-01-25T08:53:01;8.60;99.90
7016;DHT22;3548;48.402;9.990;2024-01-25T08:55:26;8.70;99.90
7016;DHT22;3548;48.402;9.990;2024-01-25T08:57:52;8.80;99.90
7016;DHT22;3548;48.402;9.990;2024-01-25T09:00:17;8.80;99.90
7016;DHT22;3548;48.402;9.990;2024-01-25T09:02:43;9.00;99.90
7016;DHT22;3548;48.402;9.990;2024-01-25T09:05:09;9.00;99.90
7016;DHT22;3548;48.402;9.990;2024-01-25T09:07:35;9.10;99.90
7016;DHT22;3548;48.402;9.990;2024-01-25T09:10:00;9.10;99.90
7016;DHT22;3548;48.402;9.990;2024-01-25T09:12:26;9.10;99.90
7016;DHT22;3548;48.402;9.990;2024-01-25T09:14:52;9.10;99.90
7016;DHT22;3548;48.402;9.990;2024-01-25T09:17:17;9.20;99.90
7016;DHT22;3548;48.402;9.990;2024-01-25T09:19:48;9.20;99.90
7016;DHT22;3548;48.402;9.990;2024-01-25T09:22:15;9.30;99.90
7016;DHT22;3548;48.402;9.990;2024-01-25T09:24:42;9.40;99.90
7016;DHT22;3548;48.402;9.990;2024-01-25T09:27:08;9.40;99.90
7016;DHT22;3548;48.402;9.990;2024-01-25T09:29:33;9.50;99.90
7016;DHT22;3548;48.402;9.990;2024-01-25T09:31:59;9.50;99.90
7016;DHT22;3548;48.402;9.990;2024-01-25T09:34:24;9.50;99.90
7016;DHT22;3548;48.402;9.990;2024-01-25T09:36:51;9.40;99.90
7016;DHT22;3548;48.402;9.990;2024-01-25T09:39:17;9.40;99.90
7016;DHT22;3548;48.402;9.990;2024-01-25T09:41:43;9.40;99.90
7016;DHT22;3548;48.402;9.990;2024-01-25T09:44:09;9.40;99.90
7016;DHT22;3548;48.402;9.990;2024-01-25T09:46:35;9.40;99.90
7016;DHT22;3548;48.402;9.990;2024-01-25T09:49:01;9.30;99.90
7016;DHT22;3548;48.402;9.990;2024-01-25T09:51:32;9.30;99.90
7016;DHT22;3548;48.402;9.990;2024-01-25T09:54:00;9.30;99.90
7016;DHT22;3548;48.402;9.990;2024-01-25T09:56:27;9.30;99.90
7016;DHT22;3548;48.402;9.990;2024-01-25T09:58:55;9.40;99.90
7016;DHT22;3548;48.402;9.990;2024-01-25T10:01:21;9.40;99.90
7016;DHT22;3548;48.402;9.990;2024-01-25T10:03:46;9.60;99.90
7016;DHT22;3548;48.402;9.990;2024-01-25T10:06:13;9.70;99.90
7016;DHT22;3548;48.402;9.990;2024-01-25T10:08:38;9.80;99.90
7016;DHT22;3548;48.402;9.990;2024-01-25T10:11:05;10.00;99.90
7016;DHT22;3548;48.402;9.990;2024-01-25T10:13:31;10.10;99.90
7016;DHT22;3548;48.402;9.990;2024-01-25T10:15:57;10.10;99.90
7016;DHT22;3548;48.402;9.990;2024-01-25T10:18:23;10.20;99.90
7016;DHT22;3548;48.402;9.990;2024-01-25T10:20:49;10.20;99.90
7016;DHT22;3548;48.402;9.990;2024-01-25T10:23:15;10.20;99.90
7016;DHT22;3548;48.402;9.990;2024-01-25T10:25:41;10.20;99.90
7016;DHT22;3548;48.402;9.990;2024-01-25T10:28:07;10.20;99.90
7016;DHT22;3548;48.402;9.990;2024-01-25T10:30:34;10.20;99.90
7016;DHT22;3548;48.402;9.990;2024-01-25T10:33:01;10.20;99.90
7016;DHT22;3548;48.402;9.990;2024-01-25T10:35:27;10.30;99.90
7016;DHT22;3548;48.402;9.990;2024-01-25T10:37:53;10.40;99.90
7016;DHT22;3548;48.402;9.990;2024-01-25T10:40:19;10.40;99.90
7016;DHT22;3548;48.402;9.990;2024-01-25T10:42:45;10.40;99.90
7016;DHT22;3548;48.402;9.990;2024-01-25T10:45:11;10.20;99.90
7016;DHT22;3548;48.402;9.990;2024-01-25T10:47:37;10.00;99.90
7016;DHT22;3548;48.402;9.990;2024-01-25T10:50:04;9.80;99.90
7016;DHT22;3548;48.402;9.990;2024-01-25T10:52:30;9.70;99.90
7016;DHT22;3548;48.402;9.990;2024-01-25T10:54:57;9.60;99.90
7016;DHT22;3548;48.402;9.990;2024-01-25T10:57:23;9.50;99.90
7016;DHT22;3548;48.402;9.990;2024-01-25T10:59:49;9.40;99.90
7016;DHT22;3548;48.402;9.990;2024-01-25T11:02:17;9.30;99.90
7016;DHT22;3548;48.402;9.990;2024-01-25T11:04:53;9.20;99.90
7016;DHT22;3548;48.402;9.990;2024-01-25T11:07:19;9.20;99.90
7016;DHT22;3548;48.402;9.990;2024-01-25T11:09:45;9.20;99.90
7016;DHT22;3548;48.402;9.990;2024-01-25T11:12:13;9.20;99.90
7016;DHT22;3548;48.402;9.990;2024-01-25T11:14:42;9.20;99.90
7016;DHT22;3548;48.402;9.990;2024-01-25T11:17:20;9.20;99.90
7016;DHT22;3548;48.402;9.990;2024-01-25T11:19:48;9.20;99.90
7016;DHT22;3548;48.402;9.990;2024-01-25T11:22:14;9.20;99.90
7016;DHT22;3548;48.402;9.990;2024-01-25T11:24:40;9.20;99.90
7016;DHT22;3548;48.402;9.990;2024-01-25T11:27:06;9.30;99.90
7016;DHT22;3548;48.402;9.990;2024-01-25T11:29:32;9.30;99.90
7016;DHT22;3548;48.402;9.990;2024-01-25T11:31:58;9.40;99.90
7016;DHT22;3548;48.402;9.990;2024-01-25T11:34:24;9.40;99.90
7016;DHT22;3548;48.402;9.990;2024-01-25T11:36:50;9.50;99.90
7016;DHT22;3548;48.402;9.990;2024-01-25T11:39:16;9.50;99.90
7016;DHT22;3548;48.402;9.990;2024-01-25T11:41:43;9.50;99.90
7016;DHT22;3548;48.402;9.990;2024-01-25T11:44:09;9.60;99.90
7016;DHT22;3548;48.402;9.990;2024-01-25T11:46:36;9.70;99.90
7016;DHT22;3548;48.402;9.990;2024-01-25T11:49:01;9.70;99.90
7016;DHT22;3548;48.402;9.990;2024-01-25T11:51:27;9.70;99.90
7016;DHT22;3548;48.402;9.990;2024-01-25T11:53:52;9.80;99.90
7016;DHT22;3548;48.402;9.990;2024-01-25T11:56:30;10.00;99.90
7016;DHT22;3548;48.402;9.990;2024-01-25T11:58:56;10.20;99.90
7016;DHT22;3548;48.402;9.990;2024-01-25T12:01:24;10.30;99.90
7016;DHT22;3548;48.402;9.990;2024-01-25T12:03:50;10.30;99.90
7016;DHT22;3548;48.402;9.990;2024-01-25T12:06:17;10.30;99.90
7016;DHT22;3548;48.402;9.990;2024-01-25T12:08:43;10.40;99.90
7016;DHT22;3548;48.402;9.990;2024-01-25T12:11:10;10.40;99.80
7016;DHT22;3548;48.402;9.990;2024-01-25T12:13:39;10.40;99.90
7016;DHT22;3548;48.402;9.990;2024-01-25T12:16:06;10.40;99.80
7016;DHT22;3548;48.402;9.990;2024-01-25T12:18:32;10.40;99.10
7016;DHT22;3548;48.402;9.990;2024-01-25T12:21:02;10.30;99.30
7016;DHT22;3548;48.402;9.990;2024-01-25T12:23:39;10.30;99.50
7016;DHT22;3548;48.402;9.990;2024-01-25T12:26:07;10.40;99.40
7016;DHT22;3548;48.402;9.990;2024-01-25T12:28:32;10.40;99.70
7016;DHT22;3548;48.402;9.990;2024-01-25T12:31:07;10.40;99.60
7016;DHT22;3548;48.402;9.990;2024-01-25T12:33:34;10.50;99.50
7016;DHT22;3548;48.402;9.990;2024-01-25T12:36:01;10.50;99.50
7016;DHT22;3548;48.402;9.990;2024-01-25T12:38:27;10.50;99.20
7016;DHT22;3548;48.402;9.990;2024-01-25T12:40:53;10.50;99.30
7016;DHT22;3548;48.402;9.990;2024-01-25T12:43:19;10.60;99.50
7016;DHT22;3548;48.402;9.990;2024-01-25T12:45:47;10.70;99.20
7016;DHT22;3548;48.402;9.990;2024-01-25T12:48:13;10.80;99.30
7016;DHT22;3548;48.402;9.990;2024-01-25T12:50:38;10.90;99.20
7016;DHT22;3548;48.402;9.990;2024-01-25T12:53:04;11.00;98.80
7016;DHT22;3548;48.402;9.990;2024-01-25T12:55:30;11.20;99.00
7016;DHT22;3548;48.402;9.990;2024-01-25T12:57:57;11.20;98.80
7016;DHT22;3548;48.402;9.990;2024-01-25T13:00:23;11.20;98.50
7016;DHT22;3548;48.402;9.990;2024-01-25T13:02:49;11.20;98.10
7016;DHT22;3548;48.402;9.990;2024-01-25T13:05:15;11.20;98.30
7016;DHT22;3548;48.402;9.990;2024-01-25T13:07:41;11.30;98.30
7016;DHT22;3548;48.402;9.990;2024-01-25T13:10:08;11.30;98.40
7016;DHT22;3548;48.402;9.990;2024-01-25T13:12:34;11.40;97.90
7016;DHT22;3548;48.402;9.990;2024-01-25T13:14:59;11.40;97.70
7016;DHT22;3548;48.402;9.990;2024-01-25T13:17:25;11.40;98.00
7016;DHT22;3548;48.402;9.990;2024-01-25T13:19:52;11.30;98.00
7016;DHT22;3548;48.402;9.990;2024-01-25T13:22:18;11.20;98.10
7016;DHT22;3548;48.402;9.990;2024-01-25T13:24:46;11.20;97.70
7016;DHT22;3548;48.402;9.990;2024-01-25T13:27:12;11.20;97.90
7016;DHT22;3548;48.402;9.990;2024-01-25T13:29:37;11.20;97.80
7016;DHT22;3548;48.402;9.990;2024-01-25T13:32:03;11.20;97.80
7016;DHT22;3548;48.402;9.990;2024-01-25T13:34:29;11.10;97.70
7016;DHT22;3548;48.402;9.990;2024-01-25T13:36:54;11.00;97.70
7016;DHT22;3548;48.402;9.990;2024-01-25T13:39:20;11.00;97.90
7016;DHT22;3548;48.402;9.990;2024-01-25T13:41:45;11.10;98.10
7016;DHT22;3548;48.402;9.990;2024-01-25T13:44:14;11.20;98.10
7016;DHT22;3548;48.402;9.990;2024-01-25T13:46:39;11.30;97.80
7016;DHT22;3548;48.402;9.990;2024-01-25T13:49:05;11.50;97.60
7016;DHT22;3548;48.402;9.990;2024-01-25T13:51:30;11.50;97.30
7016;DHT22;3548;48.402;9.990;2024-01-25T13:53:56;11.60;97.30
7016;DHT22;3548;48.402;9.990;2024-01-25T13:56:21;11.60;97.00
7016;DHT22;3548;48.402;9.990;2024-01-25T13:58:47;11.60;97.30
7016;DHT22;3548;48.402;9.990;2024-01-25T14:01:12;11.60;97.10
7016;DHT22;3548;48.402;9.990;2024-01-25T14:03:38;11.60;97.00
7016;DHT22;3548;48.402;9.990;2024-01-25T14:06:04;11.60;96.90
7016;DHT22;3548;48.402;9.990;2024-01-25T14:08:30;11.50;96.90
7016;DHT22;3548;48.402;9.990;2024-01-25T14:10:57;11.50;97.00
7016;DHT22;3548;48.402;9.990;2024-01-25T14:13:23;11.50;97.20
7016;DHT22;3548;48.402;9.990;2024-01-25T14:15:48;11.50;97.40
7016;DHT22;3548;48.402;9.990;2024-01-25T14:18:14;11.50;97.30
7016;DHT22;3548;48.402;9.990;2024-01-25T14:20:39;11.50;97.40
7016;DHT22;3548;48.402;9.990;2024-01-25T14:23:05;11.60;97.60
7016;DHT22;3548;48.402;9.990;2024-01-25T14:25:30;11.50;97.50
7016;DHT22;3548;48.402;9.990;2024-01-25T14:27:56;11.50;97.50
7016;DHT22;3548;48.402;9.990;2024-01-25T14:30:22;11.50;97.70
7016;DHT22;3548;48.402;9.990;2024-01-25T14:32:47;11.40;97.70
7016;DHT22;3548;48.402;9.990;2024-01-25T14:35:13;11.40;98.20
7016;DHT22;3548;48.402;9.990;2024-01-25T14:37:38;11.40;98.90
7016;DHT22;3548;48.402;9.990;2024-01-25T14:40:04;11.30;99.20
7016;DHT22;3548;48.402;9.990;2024-01-25T14:42:30;11.20;99.40
7016;DHT22;3548;48.402;9.990;2024-01-25T14:44:55;11.30;99.60
7016;DHT22;3548;48.402;9.990;2024-01-25T14:47:21;11.30;99.70
7016;DHT22;3548;48.402;9.990;2024-01-25T14:49:48;11.30;99.60
7016;DHT22;3548;48.402;9.990;2024-01-25T14:52:14;11.30;99.60
7016;DHT22;3548;48.402;9.990;2024-01-25T14:54:40;11.30;99.30
7016;DHT22;3548;48.402;9.990;2024-01-25T14:57:06;11.20;99.10
7016;DHT22;3548;48.402;9.990;2024-01-25T14:59:31;11.20;99.20
7016;DHT22;3548;48.402;9.990;2024-01-25T15:01:57;11.20;99.30
7016;DHT22;3548;48.402;9.990;2024-01-25T15:04:22;11.10;99.50
7016;DHT22;3548;48.402;9.990;2024-01-25T15:06:48;11.00;99.90
7016;DHT22;3548;48.402;9.990;2024-01-25T15:09:13;10.90;99.90
7016;DHT22;3548;48.402;9.990;2024-01-25T15:11:39;10.80;99.90
7016;DHT22;3548;48.402;9.990;2024-01-25T15:14:05;10.60;99.90
7016;DHT22;3548;48.402;9.990;2024-01-25T15:16:30;10.50;99.90
7016;DHT22;3548;48.402;9.990;2024-01-25T15:18:57;10.40;99.90
7016;DHT22;3548;48.402;9.990;2024-01-25T15:21:23;10.30;99.90
7016;DHT22;3548;48.402;9.990;2024-01-25T15:23:50;10.20;99.90
7016;DHT22;3548;48.402;9.990;2024-01-25T15:26:15;10.10;99.90
7016;DHT22;3548;48.402;9.990;2024-01-25T15:28:41;10.00;99.90
7016;DHT22;3548;48.402;9.990;2024-01-25T15:31:06;10.00;99.90
7016;DHT22;3548;48.402;9.990;2024-01-25T15:33:32;9.90;99.90
7016;DHT22;3548;48.402;9.990;2024-01-25T15:35:57;9.90;99.90
7016;DHT22;3548;48.402;9.990;2024-01-25T15:38:23;9.80;99.90
7016;DHT22;3548;48.402;9.990;2024-01-25T15:40:49;9.70;99.90
7016;DHT22;3548;48.402;9.990;2024-01-25T15:43:15;9.60;99.90
7016;DHT22;3548;48.402;9.990;2024-01-25T15:45:41;9.60;99.90
7016;DHT22;3548;48.402;9.990;2024-01-25T15:48:07;9.50;99.90
7016;DHT22;3548;48.402;9.990;2024-01-25T15:50:32;9.50;99.90
7016;DHT22;3548;48.402;9.990;2024-01-25T15:52:59;9.40;99.90
7016;DHT22;3548;48.402;9.990;2024-01-25T15:55:24;9.40;99.90
7016;DHT22;3548;48.402;9.990;2024-01-25T15:57:50;9.40;99.90
7016;DHT22;3548;48.402;9.990;2024-01-25T16:00:16;9.40;99.90
7016;DHT22;3548;48.402;9.990;2024-01-25T16:02:41;9.40;99.90
7016;DHT22;3548;48.402;9.990;2024-01-25T16:05:07;9.40;99.90